createdAt,value
2023-03-16T00:02:02.313Z,101031.00
2023-03-16T00:04:30.402Z,101039.00
2023-03-16T00:06:57.756Z,101041.00
2023-03-16T00:09:30.909Z,101021.00
2023-03-16T00:11:58.843Z,101045.00
2023-03-16T00:14:26.310Z,101048.00
2023-03-16T00:16:53.328Z,101040.00
2023-03-16T00:19:22.769Z,101036.00
2023-03-16T00:21:52.592Z,101038.00
2023-03-16T00:24:19.432Z,101055.00
2023-03-16T00:26:47.027Z,101057.00
2023-03-16T00:29:14.174Z,101048.00
2023-03-16T00:31:44.971Z,101055.00
2023-03-16T00:34:12.429Z,101043.00
2023-03-16T00:36:39.034Z,101043.00
2023-03-16T00:39:06.755Z,101048.00
2023-03-16T00:41:37.836Z,101058.00
2023-03-16T00:44:05.999Z,101057.00
2023-03-16T00:46:32.908Z,101036.00
2023-03-16T00:48:59.550Z,101057.00
2023-03-16T00:51:26.176Z,101053.00
2023-03-16T00:53:52.714Z,101045.00
2023-03-16T00:56:19.410Z,101065.00
2023-03-16T00:58:45.980Z,101064.00
2023-03-16T01:01:16.617Z,101065.00
2023-03-16T01:03:43.594Z,101063.00
2023-03-16T01:06:16.949Z,101069.00
2023-03-16T01:08:44.019Z,101063.00
2023-03-16T01:11:13.220Z,101074.00
2023-03-16T01:13:40.184Z,101076.00
2023-03-16T01:16:08.936Z,101072.00
2023-03-16T01:18:35.444Z,101077.00
2023-03-16T01:21:03.759Z,101081.00
2023-03-16T01:23:32.908Z,101071.00
2023-03-16T01:26:00.030Z,101078.00
2023-03-16T01:28:28.942Z,101086.00
2023-03-16T01:31:09.354Z,101082.00
2023-03-16T01:33:36.796Z,101074.00
2023-03-16T01:36:11.766Z,101074.00
2023-03-16T01:38:48.163Z,101066.00
2023-03-16T01:41:15.879Z,101073.00
2023-03-16T01:43:43.445Z,101069.00
2023-03-16T01:46:19.426Z,101067.00
2023-03-16T01:48:58.604Z,101069.00
2023-03-16T01:51:36.165Z,101069.00
2023-03-16T01:54:27.612Z,101066.00
2023-03-16T01:57:04.550Z,101068.00
2023-03-16T01:59:37.411Z,101070.00
2023-03-16T02:02:04.056Z,101064.00
2023-03-16T02:04:43.292Z,101069.00
2023-03-16T02:07:11.437Z,101060.00
2023-03-16T02:09:42.601Z,101072.00
2023-03-16T02:12:10.200Z,101053.00
2023-03-16T02:14:40.928Z,101061.00
2023-03-16T02:17:07.643Z,101045.00
2023-03-16T02:19:44.993Z,101059.00
2023-03-16T02:22:11.595Z,101060.00
2023-03-16T02:24:38.335Z,101054.00
2023-03-16T02:27:09.014Z,101062.00
2023-03-16T02:29:59.661Z,101059.00
2023-03-16T02:32:29.737Z,101052.00
2023-03-16T02:34:56.862Z,101048.00
2023-03-16T02:37:23.997Z,101057.00
2023-03-16T02:39:50.544Z,101057.00
2023-03-16T02:42:21.819Z,101064.00
2023-03-16T02:44:53.800Z,101069.00
2023-03-16T02:47:38.235Z,101068.00
2023-03-16T02:50:06.764Z,101064.00
2023-03-16T02:52:37.466Z,101066.00
2023-03-16T02:55:06.352Z,101068.00
2023-03-16T02:57:32.935Z,101065.00
2023-03-16T03:00:12.078Z,101059.00
2023-03-16T03:02:39.592Z,101068.00
2023-03-16T03:05:06.548Z,101072.00
2023-03-16T03:07:33.043Z,101073.00
2023-03-16T03:10:05.978Z,101076.00
2023-03-16T03:12:33.842Z,101072.00
2023-03-16T03:15:01.036Z,101079.00
2023-03-16T03:17:33.868Z,101087.00
2023-03-16T03:20:13.468Z,101084.00
2023-03-16T03:22:40.409Z,101075.00
2023-03-16T03:25:07.261Z,101079.00
2023-03-16T03:27:33.888Z,101076.00
2023-03-16T03:30:05.103Z,101073.00
2023-03-16T03:32:31.700Z,101086.00
2023-03-16T03:34:58.388Z,101071.00
2023-03-16T03:37:25.465Z,101077.00
2023-03-16T03:39:53.352Z,101087.00
2023-03-16T03:42:20.087Z,101090.00
2023-03-16T03:44:46.603Z,101081.00
2023-03-16T03:47:13.187Z,101090.00
2023-03-16T03:49:40.077Z,101080.00
2023-03-16T03:52:06.711Z,101090.00
2023-03-16T03:54:34.186Z,101078.00
2023-03-16T03:57:12.594Z,101090.00
2023-03-16T03:59:43.587Z,101085.00
2023-03-16T04:02:30.255Z,101093.00
2023-03-16T04:04:56.973Z,101090.00
2023-03-16T04:07:23.609Z,101079.00
2023-03-16T04:09:53.748Z,101086.00
2023-03-16T04:12:26.672Z,101086.00
2023-03-16T04:14:53.622Z,101081.00
2023-03-16T04:17:22.253Z,101088.00
2023-03-16T04:19:50.138Z,101085.00
2023-03-16T04:22:17.580Z,101101.00
2023-03-16T04:24:45.756Z,101089.00
2023-03-16T04:27:13.604Z,101094.00
2023-03-16T04:29:40.175Z,101090.00
2023-03-16T04:32:07.792Z,101103.00
2023-03-16T04:34:35.131Z,101095.00
2023-03-16T04:37:04.944Z,101086.00
2023-03-16T04:39:33.921Z,101070.00
2023-03-16T04:42:01.555Z,101091.00
2023-03-16T04:44:28.085Z,101093.00
2023-03-16T04:46:55.452Z,101103.00
2023-03-16T04:49:24.730Z,101094.00
2023-03-16T04:51:51.261Z,101100.00
2023-03-16T04:54:19.682Z,101094.00
2023-03-16T04:56:46.196Z,101114.00
2023-03-16T04:59:29.390Z,101108.00
2023-03-16T05:02:10.191Z,101107.00
2023-03-16T05:04:37.285Z,101103.00
2023-03-16T05:07:04.970Z,101110.00
2023-03-16T05:09:35.343Z,101109.00
2023-03-16T05:12:01.882Z,101113.00
2023-03-16T05:14:29.836Z,101103.00
2023-03-16T05:17:19.174Z,101109.00
2023-03-16T05:19:46.694Z,101120.00
2023-03-16T05:22:15.622Z,101109.00
2023-03-16T05:25:02.301Z,101128.00
2023-03-16T05:27:29.984Z,101123.00
2023-03-16T05:29:59.146Z,101101.00
2023-03-16T05:32:27.694Z,101116.00
2023-03-16T05:34:54.430Z,101122.00
2023-03-16T05:37:21.498Z,101121.00
2023-03-16T05:39:48.212Z,101118.00
2023-03-16T05:42:14.812Z,101130.00
2023-03-16T05:44:47.904Z,101135.00
2023-03-16T05:47:27.833Z,101129.00
2023-03-16T05:49:57.171Z,101134.00
2023-03-16T05:52:31.240Z,101135.00
2023-03-16T05:55:00.941Z,101127.00
2023-03-16T05:57:27.602Z,101138.00
2023-03-16T05:59:54.675Z,101140.00
2023-03-16T06:02:22.311Z,101137.00
2023-03-16T06:04:48.862Z,101140.00
2023-03-16T06:07:15.578Z,101136.00
2023-03-16T06:09:42.752Z,101140.00
2023-03-16T06:12:14.236Z,101138.00
2023-03-16T06:14:41.707Z,101148.00
2023-03-16T06:17:08.357Z,101141.00
2023-03-16T06:19:35.667Z,101139.00
2023-03-16T06:22:02.721Z,101147.00
2023-03-16T06:24:30.196Z,101145.00
2023-03-16T06:26:56.864Z,101152.00
2023-03-16T06:29:29.664Z,101152.00
2023-03-16T06:31:57.049Z,101159.00
2023-03-16T06:34:23.976Z,101165.00
2023-03-16T06:36:51.482Z,101169.00
2023-03-16T06:39:19.349Z,101180.00
2023-03-16T06:41:50.190Z,101177.00
2023-03-16T06:44:17.558Z,101183.00
2023-03-16T06:46:58.075Z,101190.00
2023-03-16T06:49:24.631Z,101175.00
2023-03-16T06:51:51.266Z,101190.00
2023-03-16T06:54:18.799Z,101190.00
2023-03-16T06:56:46.403Z,101181.00
2023-03-16T06:59:13.241Z,101189.00
2023-03-16T07:01:39.788Z,101196.00
2023-03-16T07:04:06.494Z,101192.00
2023-03-16T07:06:34.420Z,101208.00
2023-03-16T07:09:01.489Z,101193.00
2023-03-16T07:11:29.713Z,101200.00
2023-03-16T07:13:58.550Z,101203.00
2023-03-16T07:16:26.222Z,101202.00
2023-03-16T07:18:53.755Z,101214.00
2023-03-16T07:21:20.426Z,101213.00
2023-03-16T07:23:49.149Z,101210.00
2023-03-16T07:26:21.040Z,101220.00
2023-03-16T07:28:52.957Z,101228.00
2023-03-16T07:31:20.079Z,101222.00
2023-03-16T07:33:47.435Z,101229.00
2023-03-16T07:36:20.646Z,101233.00
2023-03-16T07:38:53.849Z,101240.00
2023-03-16T07:41:21.512Z,101227.00
2023-03-16T07:43:48.486Z,101240.00
2023-03-16T07:46:15.205Z,101237.00
2023-03-16T07:48:42.802Z,101241.00
2023-03-16T07:51:12.203Z,101243.00
2023-03-16T07:53:39.466Z,101239.00
2023-03-16T07:56:17.745Z,101239.00
2023-03-16T07:58:47.646Z,101238.00
2023-03-16T08:01:14.628Z,101229.00
2023-03-16T08:03:42.105Z,101228.00
2023-03-16T08:06:08.689Z,101227.00
2023-03-16T08:08:36.100Z,101231.00
2023-03-16T08:11:02.831Z,101236.00
2023-03-16T08:13:47.137Z,101242.00
2023-03-16T08:16:14.745Z,101245.00
2023-03-16T08:18:44.112Z,101244.00
2023-03-16T08:21:11.188Z,101244.00
2023-03-16T08:23:37.704Z,101245.00
2023-03-16T08:26:08.891Z,101248.00
2023-03-16T08:28:36.917Z,101239.00
2023-03-16T08:31:08.806Z,101236.00
2023-03-16T08:33:42.319Z,101235.00
2023-03-16T08:36:11.823Z,101240.00
2023-03-16T08:38:40.010Z,101237.00
2023-03-16T08:41:09.057Z,101253.00
2023-03-16T08:43:37.382Z,101250.00
2023-03-16T08:46:06.579Z,101249.00
2023-03-16T08:48:46.805Z,101242.00
2023-03-16T08:51:14.571Z,101234.00
2023-03-16T08:53:41.534Z,101258.00
2023-03-16T08:56:11.324Z,101258.00
2023-03-16T08:58:38.653Z,101257.00
2023-03-16T09:01:06.340Z,101264.00
2023-03-16T09:03:33.445Z,101265.00
2023-03-16T09:06:07.879Z,101257.00
2023-03-16T09:08:34.404Z,101260.00
2023-03-16T09:11:07.393Z,101257.00
2023-03-16T09:13:35.215Z,101266.00
2023-03-16T09:16:01.978Z,101258.00
2023-03-16T09:18:28.910Z,101267.00
2023-03-16T09:21:03.692Z,101262.00
2023-03-16T09:23:30.934Z,101271.00
2023-03-16T09:26:01.570Z,101272.00
2023-03-16T09:28:29.597Z,101278.00
2023-03-16T09:30:57.010Z,101280.00
2023-03-16T09:33:24.820Z,101273.00
2023-03-16T09:35:52.335Z,101277.00
2023-03-16T09:38:19.526Z,101279.00
2023-03-16T09:40:48.903Z,101282.00
2023-03-16T09:43:40.177Z,101275.00
2023-03-16T09:46:26.957Z,101288.00
2023-03-16T09:48:55.813Z,101282.00
2023-03-16T09:51:40.258Z,101289.00
2023-03-16T09:54:23.522Z,101285.00
2023-03-16T09:57:09.479Z,101295.00
2023-03-16T10:00:17.232Z,101289.00
2023-03-16T10:03:20.930Z,101286.00
2023-03-16T10:05:53.890Z,101295.00
2023-03-16T10:11:25.170Z,101288.00
2023-03-16T10:13:53.840Z,101296.00
2023-03-16T10:16:39.536Z,101293.00
2023-03-16T10:19:14.550Z,101293.00
2023-03-16T10:21:41.620Z,101289.00
2023-03-16T10:24:34.293Z,101284.00
2023-03-16T10:27:02.402Z,101279.00
2023-03-16T10:29:32.093Z,101279.00
2023-03-16T10:32:01.978Z,101284.00
2023-03-16T10:34:29.216Z,101282.00
2023-03-16T10:36:56.169Z,101277.00
2023-03-16T10:39:22.735Z,101282.00
2023-03-16T10:41:57.110Z,101279.00
2023-03-16T10:44:28.467Z,101286.00
2023-03-16T10:47:05.937Z,101287.00
2023-03-16T10:49:36.755Z,101281.00
2023-03-16T10:52:13.744Z,101277.00
2023-03-16T10:54:40.703Z,101278.00
2023-03-16T10:57:20.911Z,101265.00
2023-03-16T10:59:52.865Z,101278.00
2023-03-16T11:02:23.624Z,101275.00
2023-03-16T11:04:50.862Z,101281.00
2023-03-16T11:07:18.940Z,101279.00
2023-03-16T11:09:47.728Z,101278.00
2023-03-16T11:12:21.625Z,101276.00
2023-03-16T11:14:49.095Z,101276.00
2023-03-16T11:17:28.415Z,101273.00
2023-03-16T11:20:00.360Z,101273.00
2023-03-16T11:22:27.417Z,101269.00
2023-03-16T11:25:06.468Z,101273.00
2023-03-16T11:27:54.898Z,101267.00
2023-03-16T11:30:35.775Z,101257.00
2023-03-16T11:33:02.454Z,101261.00
2023-03-16T11:35:58.362Z,101263.00
2023-03-16T11:38:55.706Z,101254.00
2023-03-16T11:41:28.860Z,101244.00
2023-03-16T11:43:56.929Z,101251.00
2023-03-16T11:46:33.462Z,101255.00
2023-03-16T11:49:13.832Z,101250.00
2023-03-16T11:52:07.739Z,101245.00
2023-03-16T11:54:43.431Z,101242.00
2023-03-16T11:57:36.524Z,101244.00
2023-03-16T12:00:05.854Z,101243.00
2023-03-16T12:02:37.588Z,101231.00
2023-03-16T12:05:39.666Z,101227.00
2023-03-16T12:08:32.195Z,101232.00
2023-03-16T12:11:04.761Z,101228.00
2023-03-16T12:13:44.591Z,101232.00
2023-03-16T12:16:33.111Z,101220.00
2023-03-16T12:19:06.541Z,101221.00
2023-03-16T12:21:42.044Z,101209.00
2023-03-16T12:24:16.177Z,101200.00
2023-03-16T12:26:43.388Z,101210.00
2023-03-16T12:29:35.207Z,101203.00
2023-03-16T12:32:08.333Z,101208.00
2023-03-16T12:34:46.502Z,101218.00
2023-03-16T12:37:23.491Z,101209.00
2023-03-16T12:40:08.914Z,101203.00
2023-03-16T12:43:22.685Z,101200.00
2023-03-16T12:45:59.966Z,101195.00
2023-03-16T12:48:27.651Z,101198.00
2023-03-16T12:50:57.512Z,101192.00
2023-03-16T12:54:02.022Z,101193.00
2023-03-16T12:56:31.091Z,101191.00
2023-03-16T12:59:00.209Z,101168.00
2023-03-16T13:01:37.440Z,101179.00
2023-03-16T13:04:30.629Z,101183.00
2023-03-16T13:07:11.847Z,101182.00
2023-03-16T13:09:44.943Z,101179.00
2023-03-16T13:12:23.604Z,101179.00
2023-03-16T13:14:54.598Z,101166.00
2023-03-16T13:17:21.261Z,101178.00
2023-03-16T13:20:30.289Z,101181.00
2023-03-16T13:23:24.596Z,101151.00
2023-03-16T13:26:05.597Z,101163.00
2023-03-16T13:28:35.626Z,101167.00
2023-03-16T13:31:02.879Z,101163.00
2023-03-16T13:33:36.878Z,101164.00
2023-03-16T13:36:06.205Z,101161.00
2023-03-16T13:38:32.706Z,101159.00
2023-03-16T13:41:04.530Z,101162.00
2023-03-16T13:43:32.966Z,101167.00
2023-03-16T13:45:59.740Z,101172.00
2023-03-16T13:48:26.346Z,101171.00
2023-03-16T13:50:57.540Z,101169.00
2023-03-16T13:53:26.082Z,101172.00
2023-03-16T13:55:54.424Z,101171.00
2023-03-16T13:58:27.924Z,101166.00
2023-03-16T14:00:56.922Z,101157.00
2023-03-16T14:03:24.642Z,101149.00
2023-03-16T14:05:51.666Z,101138.00
2023-03-16T14:08:20.846Z,101145.00
2023-03-16T14:10:47.863Z,101136.00
2023-03-16T14:13:29.039Z,101135.00
2023-03-16T14:15:58.218Z,101129.00
2023-03-16T14:18:37.556Z,101118.00
2023-03-16T14:21:09.779Z,101134.00
2023-03-16T14:23:47.541Z,101134.00
2023-03-16T14:26:16.523Z,101133.00
2023-03-16T14:29:08.545Z,101130.00
2023-03-16T14:31:38.599Z,101135.00
2023-03-16T14:34:30.399Z,101136.00
2023-03-16T14:37:17.540Z,101126.00
2023-03-16T14:39:44.408Z,101125.00
2023-03-16T14:42:33.121Z,101125.00
2023-03-16T14:44:59.974Z,101116.00
2023-03-16T14:47:29.386Z,101102.00
2023-03-16T14:49:57.435Z,101110.00
2023-03-16T14:52:27.293Z,101099.00
2023-03-16T14:54:55.398Z,101092.00
2023-03-16T14:57:22.592Z,101092.00
2023-03-16T14:59:49.142Z,101082.00
2023-03-16T15:02:22.346Z,101074.00
2023-03-16T15:04:49.254Z,101083.00
2023-03-16T15:07:29.626Z,101084.00
2023-03-16T15:10:00.840Z,101071.00
2023-03-16T15:12:27.411Z,101088.00
2023-03-16T15:15:12.423Z,101100.00
2023-03-16T15:17:39.102Z,101087.00
2023-03-16T15:20:07.143Z,101086.00
2023-03-16T15:22:37.077Z,101081.00
2023-03-16T15:25:16.876Z,101066.00
2023-03-16T15:27:44.420Z,101068.00
2023-03-16T15:30:22.863Z,101078.00
2023-03-16T15:32:49.661Z,101069.00
2023-03-16T15:35:16.638Z,101076.00
2023-03-16T15:37:43.423Z,101070.00
2023-03-16T15:40:15.454Z,101079.00
2023-03-16T15:42:44.075Z,101072.00
2023-03-16T15:45:14.165Z,101076.00
2023-03-16T15:47:42.235Z,101067.00
2023-03-16T15:50:12.505Z,101067.00
2023-03-16T15:52:41.563Z,101076.00
2023-03-16T15:55:24.162Z,101064.00
2023-03-16T15:57:57.294Z,101057.00
2023-03-16T16:00:31.683Z,101048.00
2023-03-16T16:02:58.682Z,101044.00
2023-03-16T16:05:25.882Z,101053.00
2023-03-16T16:07:53.636Z,101045.00
2023-03-16T16:10:20.640Z,101061.00
2023-03-16T16:12:52.397Z,101049.00
2023-03-16T16:15:21.772Z,101054.00
2023-03-16T16:18:13.283Z,101044.00
2023-03-16T16:20:36.553Z,101043.00
2023-03-16T16:23:03.215Z,101044.00
2023-03-16T16:25:36.663Z,101035.00
2023-03-16T16:28:11.442Z,101043.00
2023-03-16T16:30:39.903Z,101044.00
2023-03-16T16:33:28.231Z,101044.00
2023-03-16T16:35:56.884Z,101037.00
2023-03-16T16:38:24.259Z,101047.00
2023-03-16T16:40:52.376Z,101050.00
2023-03-16T16:43:21.751Z,101048.00
2023-03-16T16:45:48.857Z,101048.00
2023-03-16T16:48:36.902Z,101038.00
2023-03-16T16:51:07.068Z,101036.00
2023-03-16T16:53:33.805Z,101036.00
2023-03-16T16:56:00.915Z,101032.00
2023-03-16T16:58:27.947Z,101024.00
2023-03-16T17:00:58.931Z,101018.00
2023-03-16T17:03:28.354Z,101033.00
2023-03-16T17:05:57.831Z,101023.00
2023-03-16T17:08:25.682Z,101021.00
2023-03-16T17:10:53.781Z,101013.00
2023-03-16T17:13:33.182Z,101021.00
2023-03-16T17:16:00.111Z,101008.00
2023-03-16T17:18:27.008Z,101007.00
2023-03-16T17:20:53.577Z,101012.00
2023-03-16T17:23:27.944Z,101018.00
2023-03-16T17:25:55.547Z,101014.00
2023-03-16T17:28:23.568Z,101021.00
2023-03-16T17:30:53.610Z,101018.00
2023-03-16T17:33:21.070Z,101021.00
2023-03-16T17:35:48.302Z,101022.00
2023-03-16T17:38:25.141Z,101033.00
2023-03-16T17:40:53.071Z,101029.00
2023-03-16T17:43:21.919Z,101036.00
2023-03-16T17:45:50.250Z,101034.00
2023-03-16T17:48:19.473Z,101027.00
2023-03-16T17:50:46.955Z,101032.00
2023-03-16T17:53:18.033Z,101037.00
2023-03-16T17:55:46.671Z,101036.00
2023-03-16T17:58:25.931Z,101039.00
2023-03-16T18:00:56.706Z,101037.00
2023-03-16T18:03:27.184Z,101042.00
2023-03-16T18:05:54.623Z,101031.00
2023-03-16T18:08:28.093Z,101027.00
2023-03-16T18:10:59.252Z,101021.00
2023-03-16T18:13:29.765Z,101020.00
2023-03-16T18:15:57.235Z,101021.00
2023-03-16T18:18:26.599Z,101014.00
2023-03-16T18:20:56.085Z,101011.00
2023-03-16T18:23:25.265Z,101001.00
2023-03-16T18:25:53.990Z,101012.00
2023-03-16T18:28:21.873Z,101011.00
2023-03-16T18:30:52.397Z,101010.00
2023-03-16T18:33:23.716Z,101013.00
2023-03-16T18:35:51.772Z,101011.00
2023-03-16T18:38:29.648Z,101015.00
2023-03-16T18:41:00.644Z,101002.00
2023-03-16T18:43:27.557Z,100997.00
2023-03-16T18:45:54.997Z,100980.00
2023-03-16T18:48:33.668Z,100994.00
2023-03-16T18:51:00.969Z,101005.00
2023-03-16T18:53:28.086Z,101013.00
2023-03-16T18:55:57.531Z,101006.00
2023-03-16T18:58:25.220Z,101003.00
2023-03-16T19:00:56.656Z,100991.00
2023-03-16T19:03:28.497Z,100993.00
2023-03-16T19:05:57.050Z,100982.00
2023-03-16T19:08:24.502Z,100974.00
2023-03-16T19:10:56.972Z,100984.00
2023-03-16T19:13:26.106Z,100985.00
2023-03-16T19:15:54.716Z,100986.00
2023-03-16T19:18:22.814Z,100981.00
2023-03-16T19:20:50.484Z,100985.00
2023-03-16T19:23:28.623Z,100974.00
2023-03-16T19:25:55.915Z,100971.00
2023-03-16T19:28:33.614Z,100970.00
2023-03-16T19:31:07.206Z,100962.00
2023-03-16T19:33:33.785Z,100959.00
2023-03-16T19:36:00.366Z,100968.00
2023-03-16T19:38:26.942Z,100975.00
2023-03-16T19:40:56.439Z,100977.00
2023-03-16T19:43:23.226Z,100980.00
2023-03-16T19:45:49.945Z,100975.00
2023-03-16T19:48:20.983Z,100985.00
2023-03-16T19:50:49.216Z,100992.00
2023-03-16T19:53:18.818Z,100991.00
2023-03-16T19:55:49.011Z,100995.00
2023-03-16T19:58:24.572Z,100984.00
2023-03-16T20:00:51.277Z,100982.00
2023-03-16T20:03:18.177Z,100984.00
2023-03-16T20:05:44.705Z,100964.00
2023-03-16T20:08:23.537Z,100969.00
2023-03-16T20:10:50.783Z,100975.00
2023-03-16T20:13:18.265Z,100969.00
2023-03-16T20:15:47.058Z,100976.00
2023-03-16T20:18:16.040Z,100980.00
2023-03-16T20:20:43.707Z,100979.00
2023-03-16T20:23:19.537Z,100976.00
2023-03-16T20:25:46.751Z,100984.00
2023-03-16T20:28:19.802Z,100971.00
2023-03-16T20:30:47.248Z,100972.00
2023-03-16T20:33:23.269Z,100972.00
2023-03-16T20:35:50.852Z,100977.00
2023-03-16T20:38:17.439Z,100976.00
2023-03-16T20:40:45.718Z,100976.00
2023-03-16T20:43:25.429Z,100970.00
2023-03-16T20:45:57.241Z,100962.00
2023-03-16T20:48:27.313Z,100959.00
2023-03-16T20:50:55.920Z,100952.00
2023-03-16T20:53:23.330Z,100950.00
2023-03-16T20:55:52.340Z,100962.00
2023-03-16T20:58:26.616Z,100961.00
2023-03-16T21:00:57.411Z,100963.00
2023-03-16T21:03:26.693Z,100962.00
2023-03-16T21:05:54.268Z,100958.00
2023-03-16T21:08:23.218Z,100960.00
2023-03-16T21:10:51.820Z,100962.00
2023-03-16T21:13:30.320Z,100956.00
2023-03-16T21:15:59.636Z,100960.00
2023-03-16T21:18:26.306Z,100947.00
2023-03-16T21:20:53.618Z,100935.00
2023-03-16T21:23:22.247Z,100936.00
2023-03-16T21:25:52.005Z,100919.00
2023-03-16T21:28:19.283Z,100920.00
2023-03-16T21:30:51.869Z,100916.00
2023-03-16T21:33:24.374Z,100921.00
2023-03-16T21:35:51.150Z,100923.00
2023-03-16T21:38:20.334Z,100921.00
2023-03-16T21:40:47.830Z,100919.00
2023-03-16T21:43:15.676Z,100921.00
2023-03-16T21:45:42.709Z,100923.00
2023-03-16T21:48:25.680Z,100910.00
2023-03-16T21:50:53.708Z,100904.00
2023-03-16T21:53:20.548Z,100903.00
2023-03-16T21:55:47.272Z,100892.00
2023-03-16T21:58:14.055Z,100901.00
2023-03-16T22:00:40.571Z,100902.00
2023-03-16T22:03:21.751Z,100895.00
2023-03-16T22:05:48.350Z,100892.00
2023-03-16T22:08:18.437Z,100897.00
2023-03-16T22:10:45.661Z,100886.00
2023-03-16T22:13:12.455Z,100882.00
2023-03-16T22:15:41.319Z,100895.00
2023-03-16T22:18:17.008Z,100879.00
2023-03-16T22:20:43.542Z,100879.00
2023-03-16T22:23:28.896Z,100869.00
2023-03-16T22:25:55.808Z,100869.00
2023-03-16T22:28:22.630Z,100848.00
2023-03-16T22:30:49.164Z,100864.00
2023-03-16T22:33:18.672Z,100867.00
2023-03-16T22:35:45.623Z,100866.00
2023-03-16T22:38:13.518Z,100865.00
2023-03-16T22:40:42.409Z,100871.00
2023-03-16T22:43:14.503Z,100849.00
2023-03-16T22:45:41.419Z,100856.00
2023-03-16T22:48:17.658Z,100851.00
2023-03-16T22:50:44.224Z,100845.00
2023-03-16T22:53:11.714Z,100846.00
2023-03-16T22:55:39.325Z,100846.00
2023-03-16T22:58:16.376Z,100838.00
2023-03-16T23:00:42.941Z,100838.00
2023-03-16T23:03:20.733Z,100837.00
2023-03-16T23:05:47.267Z,100827.00
2023-03-16T23:08:16.322Z,100813.00
2023-03-16T23:10:43.776Z,100819.00
2023-03-16T23:13:18.486Z,100824.00
2023-03-16T23:15:47.403Z,100827.00
2023-03-16T23:18:22.390Z,100836.00
2023-03-16T23:20:49.720Z,100828.00
2023-03-16T23:23:16.489Z,100823.00
2023-03-16T23:25:44.234Z,100829.00
2023-03-16T23:28:18.291Z,100826.00
2023-03-16T23:30:44.984Z,100815.00
2023-03-16T23:33:12.919Z,100810.00
2023-03-16T23:35:41.143Z,100808.00
2023-03-16T23:38:08.165Z,100800.00
2023-03-16T23:40:36.767Z,100800.00
2023-03-16T23:43:03.345Z,100800.00
2023-03-16T23:45:38.909Z,100796.00
2023-03-16T23:48:07.960Z,100808.00
2023-03-16T23:50:35.715Z,100805.00
2023-03-16T23:53:02.942Z,100790.00
2023-03-16T23:55:29.678Z,100798.00
2023-03-16T23:57:56.323Z,100791.00
